createdAt,value
2022-08-21T00:00:28.578Z,5.20
2022-08-21T00:03:04.152Z,5.15
2022-08-21T00:05:33.273Z,4.12
2022-08-21T00:08:01.053Z,4.25
2022-08-21T00:10:28.807Z,6.75
2022-08-21T00:12:56.580Z,7.45
2022-08-21T00:15:27.601Z,5.12
2022-08-21T00:17:56.199Z,7.97
2022-08-21T00:20:24.564Z,5.07
2022-08-21T00:22:52.670Z,5.53
2022-08-21T00:25:24.400Z,5.30
2022-08-21T00:27:55.054Z,5.40
2022-08-21T00:30:24.065Z,8.00
2022-08-21T00:32:53.317Z,5.70
2022-08-21T00:35:26.133Z,5.03
2022-08-21T00:37:53.896Z,6.15
2022-08-21T00:40:26.214Z,6.12
2022-08-21T00:42:54.154Z,6.97
2022-08-21T00:45:25.002Z,5.75
2022-08-21T00:47:54.949Z,5.50
2022-08-21T00:50:24.241Z,9.82
2022-08-21T00:52:52.902Z,5.57
2022-08-21T00:55:22.695Z,5.82
2022-08-21T00:57:53.804Z,7.10
2022-08-21T01:00:32.839Z,4.53
2022-08-21T01:03:07.326Z,5.50
2022-08-21T01:05:36.842Z,6.12
2022-08-21T01:08:06.004Z,8.13
2022-08-21T01:10:34.620Z,6.65
2022-08-21T01:13:02.367Z,6.22
2022-08-21T01:15:33.563Z,6.50
2022-08-21T01:18:01.457Z,6.03
2022-08-21T01:20:32.750Z,6.97
2022-08-21T01:23:05.548Z,7.03
2022-08-21T01:25:35.185Z,6.30
2022-08-21T01:28:08.221Z,6.37
2022-08-21T01:30:37.226Z,8.15
2022-08-21T01:33:05.811Z,7.35
2022-08-21T01:35:34.745Z,6.25
2022-08-21T01:38:02.565Z,7.07
2022-08-21T01:40:30.782Z,7.45
2022-08-21T01:42:58.471Z,6.78
2022-08-21T01:45:26.346Z,6.20
2022-08-21T01:47:54.223Z,8.60
2022-08-21T01:50:22.354Z,8.27
2022-08-21T01:52:50.800Z,8.40
2022-08-21T01:55:21.000Z,7.70
2022-08-21T01:57:49.401Z,9.38
2022-08-21T02:00:20.197Z,7.75
2022-08-21T02:02:47.957Z,7.85
2022-08-21T02:05:16.414Z,10.70
2022-08-21T02:07:50.184Z,10.13
2022-08-21T02:10:23.013Z,9.17
2022-08-21T02:12:50.794Z,8.40
2022-08-21T02:15:19.758Z,9.73
2022-08-21T02:17:50.304Z,12.40
2022-08-21T02:20:26.177Z,8.32
2022-08-21T02:22:54.535Z,11.00
2022-08-21T02:25:23.903Z,9.32
2022-08-21T02:27:52.043Z,8.55
2022-08-21T02:30:26.978Z,9.52
2022-08-21T02:32:54.768Z,9.67
2022-08-21T02:35:22.337Z,12.88
2022-08-21T02:37:57.719Z,11.52
2022-08-21T02:40:29.012Z,8.02
2022-08-21T02:42:56.700Z,9.88
2022-08-21T02:45:24.523Z,9.68
2022-08-21T02:47:54.852Z,9.18
2022-08-21T02:50:26.691Z,9.95
2022-08-21T02:52:55.637Z,11.05
2022-08-21T02:55:27.238Z,13.13
2022-08-21T02:57:56.230Z,11.77
2022-08-21T03:00:26.291Z,9.75
2022-08-21T03:02:54.517Z,8.77
2022-08-21T03:05:22.485Z,11.55
2022-08-21T03:07:50.182Z,8.48
2022-08-21T03:10:17.758Z,8.90
2022-08-21T03:12:45.482Z,8.77
2022-08-21T03:15:15.571Z,14.32
2022-08-21T03:17:43.010Z,11.18
2022-08-21T03:20:11.603Z,11.40
2022-08-21T03:22:39.601Z,10.70
2022-08-21T03:25:07.871Z,12.13
2022-08-21T03:27:38.768Z,10.20
2022-08-21T03:30:09.483Z,9.95
2022-08-21T03:32:37.291Z,10.13
2022-08-21T03:35:05.912Z,8.20
2022-08-21T03:37:33.360Z,11.07
2022-08-21T03:40:01.204Z,13.27
2022-08-21T03:42:28.986Z,9.93
2022-08-21T03:44:56.508Z,11.02
2022-08-21T03:47:24.046Z,10.90
2022-08-21T03:49:51.774Z,10.57
2022-08-21T03:52:19.626Z,12.07
2022-08-21T03:54:47.356Z,13.62
2022-08-21T03:57:15.236Z,14.48
2022-08-21T03:59:43.863Z,9.40
2022-08-21T04:02:12.049Z,11.65
2022-08-21T04:04:39.872Z,10.43
2022-08-21T04:07:07.363Z,11.77
2022-08-21T04:09:34.821Z,12.20
2022-08-21T04:12:03.348Z,7.87
2022-08-21T04:14:31.241Z,10.52
2022-08-21T04:16:58.730Z,11.70
2022-08-21T04:19:26.498Z,12.30
2022-08-21T04:21:54.140Z,11.77
2022-08-21T04:24:22.635Z,10.57
2022-08-21T04:26:50.937Z,12.93
2022-08-21T04:29:18.433Z,11.75
2022-08-21T04:31:45.977Z,12.37
2022-08-21T04:34:14.544Z,12.95
2022-08-21T04:36:42.360Z,11.88
2022-08-21T04:39:10.197Z,13.80
2022-08-21T04:41:38.632Z,10.57
2022-08-21T04:44:06.263Z,10.10
2022-08-21T04:46:33.913Z,11.80
2022-08-21T04:49:01.699Z,10.65
2022-08-21T04:51:36.062Z,11.07
2022-08-21T04:54:10.713Z,9.25
2022-08-21T04:56:42.472Z,8.52
2022-08-21T04:59:20.466Z,12.02
2022-08-21T05:01:48.222Z,9.88
2022-08-21T05:04:18.020Z,10.52
2022-08-21T05:06:48.080Z,8.32
2022-08-21T05:09:17.952Z,8.75
2022-08-21T05:11:45.911Z,9.23
2022-08-21T05:14:13.697Z,8.27
2022-08-21T05:16:42.829Z,7.70
2022-08-21T05:19:10.885Z,7.47
2022-08-21T05:21:42.433Z,8.95
2022-08-21T05:24:10.504Z,9.10
2022-08-21T05:26:46.408Z,6.82
2022-08-21T05:29:16.589Z,8.32
2022-08-21T05:31:44.810Z,7.85
2022-08-21T05:34:16.207Z,6.03
2022-08-21T05:36:45.481Z,6.40
2022-08-21T05:39:13.201Z,8.38
2022-08-21T05:41:40.851Z,7.62
2022-08-21T05:44:10.503Z,7.68
2022-08-21T05:46:39.299Z,7.03
2022-08-21T05:49:06.802Z,7.45
2022-08-21T05:51:34.531Z,8.35
2022-08-21T05:54:02.011Z,5.28
2022-08-21T05:56:29.540Z,6.78
2022-08-21T05:58:57.297Z,6.57
2022-08-21T06:01:25.547Z,6.53
2022-08-21T06:03:53.442Z,7.72
2022-08-21T06:06:24.702Z,5.62
2022-08-21T06:08:53.695Z,5.85
2022-08-21T06:11:24.682Z,6.32
2022-08-21T06:13:56.360Z,6.70
2022-08-21T06:16:24.334Z,6.75
2022-08-21T06:18:51.842Z,5.57
2022-08-21T06:21:19.582Z,7.28
2022-08-21T06:23:47.353Z,6.45
2022-08-21T06:26:15.473Z,8.48
2022-08-21T06:28:43.467Z,6.87
2022-08-21T06:31:13.552Z,7.20
2022-08-21T06:33:41.066Z,6.57
2022-08-21T06:36:08.840Z,9.50
2022-08-21T06:38:37.416Z,5.85
2022-08-21T06:41:07.448Z,7.00
2022-08-21T06:43:39.678Z,6.30
2022-08-21T06:46:08.815Z,7.32
2022-08-21T06:48:36.527Z,7.35
2022-08-21T06:51:04.009Z,7.32
2022-08-21T06:53:31.733Z,8.60
2022-08-21T06:55:59.277Z,7.00
2022-08-21T06:58:26.783Z,6.90
2022-08-21T07:00:57.641Z,8.75
2022-08-21T07:03:33.532Z,6.37
2022-08-21T07:06:01.356Z,6.93
2022-08-21T07:08:29.712Z,8.25
2022-08-21T07:10:58.597Z,7.82
2022-08-21T07:13:26.973Z,7.53
2022-08-21T07:15:54.533Z,7.87
2022-08-21T07:18:22.303Z,10.10
2022-08-21T07:20:50.137Z,7.50
2022-08-21T07:23:33.966Z,7.43
2022-08-21T07:26:02.254Z,8.10
2022-08-21T07:28:30.264Z,6.32
2022-08-21T07:30:59.865Z,6.07
2022-08-21T07:33:29.440Z,7.03
2022-08-21T07:35:57.135Z,8.73
2022-08-21T07:38:25.184Z,7.85
2022-08-21T07:40:55.569Z,7.03
2022-08-21T07:43:23.556Z,8.68
2022-08-21T07:45:51.028Z,11.27
2022-08-21T07:48:18.863Z,8.70
2022-08-21T07:50:46.538Z,7.80
2022-08-21T07:53:14.037Z,7.20
2022-08-21T07:55:41.752Z,8.40
2022-08-21T07:58:09.257Z,7.62
2022-08-21T08:00:36.983Z,9.23
2022-08-21T08:03:04.835Z,8.25
2022-08-21T08:05:33.433Z,10.00
2022-08-21T08:08:00.881Z,7.70
2022-08-21T08:10:28.946Z,8.63
2022-08-21T08:12:56.697Z,9.18
2022-08-21T08:15:26.503Z,8.60
2022-08-21T08:17:55.883Z,8.63
2022-08-21T08:20:24.625Z,7.10
2022-08-21T08:22:52.282Z,6.80
2022-08-21T08:25:21.423Z,10.07
2022-08-21T08:27:48.970Z,7.55
2022-08-21T08:30:19.211Z,8.75
2022-08-21T08:32:48.246Z,9.07
2022-08-21T08:35:16.356Z,7.03
2022-08-21T08:37:46.713Z,7.40
2022-08-21T08:40:45.415Z,7.97
2022-08-21T08:43:14.523Z,7.93
2022-08-21T08:45:47.494Z,8.50
2022-08-21T08:48:43.197Z,6.87
2022-08-21T08:51:18.194Z,8.88
2022-08-21T08:53:51.603Z,10.10
2022-08-21T08:56:23.806Z,8.57
2022-08-21T08:58:52.584Z,7.50
2022-08-21T09:01:21.280Z,8.50
2022-08-21T09:03:51.124Z,10.85
2022-08-21T09:06:46.618Z,8.35
2022-08-21T09:11:57.426Z,10.68
2022-08-21T09:14:31.567Z,8.90
2022-08-21T09:17:33.420Z,10.43
2022-08-21T09:20:05.013Z,7.97
2022-08-21T09:22:50.692Z,11.40
2022-08-21T09:25:25.894Z,8.18
2022-08-21T09:27:54.059Z,12.90
2022-08-21T09:30:33.205Z,9.05
2022-08-21T09:33:01.196Z,8.57
2022-08-21T09:35:29.204Z,11.57
2022-08-21T09:38:07.481Z,9.82
2022-08-21T09:40:44.469Z,9.52
2022-08-21T09:43:11.857Z,8.07
2022-08-21T09:45:42.843Z,9.57
2022-08-21T09:48:22.523Z,9.50
2022-08-21T09:50:55.108Z,9.57
2022-08-21T09:53:30.579Z,8.05
2022-08-21T09:56:24.245Z,8.60
2022-08-21T09:58:52.977Z,7.97
2022-08-21T10:01:23.490Z,10.88
2022-08-21T10:04:10.929Z,9.07
2022-08-21T10:06:38.821Z,9.38
2022-08-21T10:09:18.743Z,9.05
2022-08-21T10:11:58.744Z,10.77
2022-08-21T10:14:45.879Z,7.20
2022-08-21T10:17:41.989Z,9.75
2022-08-21T10:20:26.962Z,7.50
2022-08-21T10:23:25.297Z,8.45
2022-08-21T10:26:13.205Z,10.15
2022-08-21T10:28:53.791Z,8.82
2022-08-21T10:31:31.025Z,9.55
2022-08-21T10:34:18.666Z,8.13
2022-08-21T10:37:12.373Z,9.10
2022-08-21T10:40:05.045Z,11.20
2022-08-21T10:42:34.672Z,8.93
2022-08-21T10:45:09.789Z,8.98
2022-08-21T10:47:43.040Z,8.18
2022-08-21T10:50:15.698Z,9.27
2022-08-21T10:53:05.169Z,10.50
2022-08-21T10:55:36.734Z,8.98
2022-08-21T10:58:14.149Z,10.48
2022-08-21T11:00:46.982Z,10.68
2022-08-21T11:03:19.214Z,8.88
2022-08-21T11:05:53.946Z,8.80
2022-08-21T11:08:31.775Z,10.40
2022-08-21T11:11:10.278Z,7.60
2022-08-21T11:13:45.582Z,10.05
2022-08-21T11:18:53.685Z,8.23
2022-08-21T11:21:44.174Z,10.68
2022-08-21T11:24:37.775Z,10.13
2022-08-21T11:27:22.624Z,7.82
2022-08-21T11:29:58.385Z,8.65
2022-08-21T11:32:39.067Z,6.62
2022-08-21T11:35:16.405Z,8.48
2022-08-21T11:37:55.731Z,9.60
2022-08-21T11:41:19.297Z,9.00
2022-08-21T11:43:57.039Z,10.13
2022-08-21T11:46:40.063Z,8.73
2022-08-21T11:49:20.844Z,10.27
2022-08-21T11:51:56.935Z,12.02
2022-08-21T11:54:26.926Z,9.10
2022-08-21T11:57:05.127Z,9.10
2022-08-21T11:59:44.544Z,11.00
2022-08-21T12:02:19.195Z,8.20
2022-08-21T12:07:31.860Z,10.18
2022-08-21T12:10:00.378Z,11.95
2022-08-21T12:12:39.186Z,9.63
2022-08-21T12:15:22.202Z,11.35
2022-08-21T12:17:54.840Z,8.05
2022-08-21T12:20:22.734Z,7.55
2022-08-21T12:23:03.584Z,6.97
2022-08-21T12:25:39.786Z,7.35
2022-08-21T12:28:13.030Z,7.00
2022-08-21T12:30:50.157Z,9.35
2022-08-21T12:33:37.459Z,10.75
2022-08-21T12:36:10.785Z,8.20
2022-08-21T12:38:50.012Z,8.85
2022-08-21T12:41:23.465Z,9.18
2022-08-21T12:44:05.206Z,11.57
2022-08-21T12:46:40.457Z,8.40
2022-08-21T12:49:16.262Z,7.47
2022-08-21T12:51:52.162Z,8.05
2022-08-21T12:54:30.782Z,7.28
2022-08-21T12:57:01.630Z,7.68
2022-08-21T12:59:30.531Z,7.22
2022-08-21T13:02:01.653Z,6.93
2022-08-21T13:04:39.867Z,6.55
2022-08-21T13:07:11.924Z,6.85
2022-08-21T13:09:45.734Z,6.32
2022-08-21T13:12:15.384Z,6.03
2022-08-21T13:14:46.180Z,5.30
2022-08-21T13:17:25.954Z,5.10
2022-08-21T13:20:03.941Z,3.87
2022-08-21T13:22:33.839Z,4.93
2022-08-21T13:25:07.091Z,3.50
2022-08-21T13:27:35.436Z,5.10
2022-08-21T13:30:11.029Z,5.68
2022-08-21T13:32:44.783Z,5.22
2022-08-21T13:35:22.012Z,4.32
2022-08-21T13:37:52.146Z,4.28
2022-08-21T13:40:46.182Z,5.30
2022-08-21T13:43:20.943Z,4.43
2022-08-21T13:48:19.677Z,3.47
2022-08-21T13:50:47.752Z,3.70
2022-08-21T13:53:45.906Z,4.70
2022-08-21T13:56:44.098Z,4.45
2022-08-21T13:59:11.708Z,4.68
2022-08-21T14:01:44.228Z,4.37
2022-08-21T14:04:25.184Z,6.55
2022-08-21T14:06:53.374Z,5.60
2022-08-21T14:09:43.928Z,4.10
2022-08-21T14:12:23.589Z,4.72
2022-08-21T14:14:52.746Z,3.42
2022-08-21T14:17:36.350Z,4.45
2022-08-21T14:22:42.922Z,3.92
2022-08-21T14:25:20.036Z,3.57
2022-08-21T14:27:53.235Z,3.10
2022-08-21T14:30:36.810Z,3.10
2022-08-21T14:33:10.130Z,4.62
2022-08-21T14:35:38.327Z,4.18
2022-08-21T14:38:14.630Z,3.28
2022-08-21T14:40:43.609Z,3.92
2022-08-21T14:43:11.162Z,3.90
2022-08-21T14:45:41.654Z,4.10
2022-08-21T14:48:09.557Z,3.60
2022-08-21T14:50:38.797Z,3.30
2022-08-21T14:53:10.904Z,3.92
2022-08-21T14:55:59.036Z,3.22
2022-08-21T14:58:26.879Z,3.60
2022-08-21T15:00:55.476Z,4.85
2022-08-21T15:03:23.268Z,3.60
2022-08-21T15:05:50.989Z,2.90
2022-08-21T15:08:19.360Z,3.28
2022-08-21T15:11:10.571Z,3.22
2022-08-21T15:13:35.593Z,5.45
2022-08-21T15:16:03.278Z,4.07
2022-08-21T15:18:31.273Z,2.53
2022-08-21T15:20:59.277Z,3.20
2022-08-21T15:23:27.329Z,4.57
2022-08-21T15:25:55.948Z,4.55
2022-08-21T15:28:23.889Z,3.45
2022-08-21T15:30:52.778Z,3.25
2022-08-21T15:33:20.609Z,2.97
2022-08-21T15:35:49.041Z,4.30
2022-08-21T15:38:17.076Z,4.15
2022-08-21T15:40:47.841Z,3.33
2022-08-21T15:43:30.184Z,4.35
2022-08-21T15:46:01.843Z,4.03
2022-08-21T15:48:29.870Z,3.75
2022-08-21T15:50:57.368Z,2.85
2022-08-21T15:53:24.845Z,4.65
2022-08-21T15:55:52.689Z,4.62
2022-08-21T15:58:22.801Z,3.78
2022-08-21T16:00:50.308Z,3.72
2022-08-21T16:03:20.740Z,3.40
2022-08-21T16:05:53.829Z,4.70
2022-08-21T16:08:21.942Z,4.35
2022-08-21T16:10:49.981Z,3.40
2022-08-21T16:13:23.467Z,3.28
2022-08-21T16:15:51.587Z,4.15
2022-08-21T16:18:19.796Z,3.75
2022-08-21T16:20:47.529Z,3.35
2022-08-21T16:23:15.442Z,3.75
2022-08-21T16:25:43.006Z,4.07
2022-08-21T16:28:17.436Z,3.87
2022-08-21T16:33:32.380Z,3.90
2022-08-21T16:36:00.769Z,4.07
2022-08-21T16:38:29.434Z,5.87
2022-08-21T16:40:56.974Z,3.80
2022-08-21T16:43:26.527Z,3.30
2022-08-21T16:45:55.388Z,6.18
2022-08-21T16:48:23.872Z,7.05
2022-08-21T16:50:51.659Z,4.90
2022-08-21T16:53:19.139Z,4.68
2022-08-21T16:55:47.136Z,4.90
2022-08-21T16:58:18.725Z,5.10
2022-08-21T17:00:46.252Z,6.40
2022-08-21T17:03:17.039Z,3.97
2022-08-21T17:05:44.970Z,7.25
2022-08-21T17:08:12.589Z,5.15
2022-08-21T17:10:43.604Z,5.28
2022-08-21T17:13:12.397Z,6.07
2022-08-21T17:15:40.225Z,5.62
2022-08-21T17:18:16.587Z,6.60
2022-08-21T17:20:45.114Z,6.07
2022-08-21T17:23:13.844Z,6.72
2022-08-21T17:25:44.442Z,6.12
2022-08-21T17:28:24.408Z,6.00
2022-08-21T17:30:53.640Z,6.28
2022-08-21T17:33:21.536Z,6.10
2022-08-21T17:35:49.043Z,6.43
2022-08-21T17:38:16.810Z,6.00
2022-08-21T17:40:46.989Z,6.75
2022-08-21T17:43:15.293Z,5.78
2022-08-21T17:45:43.601Z,4.00
2022-08-21T17:48:11.745Z,5.03
2022-08-21T17:50:40.185Z,6.75
2022-08-21T17:53:07.978Z,6.22
2022-08-21T17:55:36.514Z,4.40
2022-08-21T17:58:04.294Z,4.03
2022-08-21T18:00:32.377Z,4.75
2022-08-21T18:03:07.611Z,4.60
2022-08-21T18:08:03.709Z,5.35
2022-08-21T18:10:31.261Z,5.62
2022-08-21T18:13:00.311Z,4.78
2022-08-21T18:15:28.819Z,4.05
2022-08-21T18:17:56.333Z,4.12
2022-08-21T18:20:24.090Z,4.18
2022-08-21T18:22:52.196Z,6.90
2022-08-21T18:25:21.003Z,5.28
2022-08-21T18:27:49.732Z,3.87
2022-08-21T18:30:20.724Z,5.97
2022-08-21T18:32:50.539Z,4.10
2022-08-21T18:35:38.489Z,5.05
2022-08-21T18:38:27.546Z,4.70
2022-08-21T18:41:15.380Z,6.47
2022-08-21T18:44:03.670Z,3.60
2022-08-21T18:46:31.774Z,4.20
2022-08-21T18:49:19.517Z,2.95
2022-08-21T18:51:47.739Z,5.32
2022-08-21T18:54:15.703Z,3.60
2022-08-21T18:56:45.240Z,3.47
2022-08-21T18:59:15.060Z,3.33
2022-08-21T19:01:43.283Z,4.00
2022-08-21T19:04:30.135Z,4.55
2022-08-21T19:07:04.817Z,4.72
2022-08-21T19:09:35.765Z,3.50
2022-08-21T19:12:04.334Z,3.20
2022-08-21T19:14:33.329Z,4.25
2022-08-21T19:17:02.920Z,4.35
2022-08-21T19:19:32.917Z,3.67
2022-08-21T19:22:01.614Z,4.22
2022-08-21T19:24:33.132Z,2.70
2022-08-21T19:27:03.360Z,2.78
2022-08-21T19:29:34.556Z,3.30
2022-08-21T19:32:06.237Z,6.18
2022-08-21T19:34:36.360Z,2.58
2022-08-21T19:37:06.421Z,2.83
2022-08-21T19:39:42.361Z,3.35
2022-08-21T19:42:14.947Z,4.05
2022-08-21T19:44:43.872Z,4.65
2022-08-21T19:47:19.041Z,3.00
2022-08-21T19:49:51.259Z,3.12
2022-08-21T19:52:18.969Z,4.55
2022-08-21T19:54:46.771Z,2.12
2022-08-21T19:57:14.594Z,3.72
2022-08-21T19:59:42.848Z,2.62
2022-08-21T20:02:13.482Z,2.25
2022-08-21T20:04:53.435Z,4.12
2022-08-21T20:07:26.760Z,2.42
2022-08-21T20:10:10.594Z,3.80
2022-08-21T20:12:38.259Z,2.92
2022-08-21T20:15:07.672Z,4.50
2022-08-21T20:17:35.782Z,3.05
2022-08-21T20:20:04.868Z,3.87
2022-08-21T20:22:32.395Z,3.67
2022-08-21T20:25:00.405Z,2.78
2022-08-21T20:27:28.670Z,3.28
2022-08-21T20:29:56.538Z,2.40
2022-08-21T20:32:24.603Z,2.45
2022-08-21T20:34:53.933Z,4.20
2022-08-21T20:37:36.707Z,2.37
2022-08-21T20:42:59.431Z,2.20
2022-08-21T20:45:33.797Z,3.58
2022-08-21T20:48:04.833Z,3.35
2022-08-21T20:50:36.931Z,3.70
2022-08-21T20:53:18.609Z,1.75
2022-08-21T20:55:48.854Z,2.45
2022-08-21T20:58:34.588Z,3.25
2022-08-21T21:01:06.592Z,2.10
2022-08-21T21:03:37.444Z,2.80
2022-08-21T21:06:09.068Z,3.03
2022-08-21T21:08:50.961Z,3.17
2022-08-21T21:11:20.252Z,3.42
2022-08-21T21:13:53.500Z,3.25
2022-08-21T21:16:27.266Z,2.90
2022-08-21T21:19:04.692Z,3.62
2022-08-21T21:21:35.997Z,2.12
2022-08-21T21:24:10.474Z,1.90
2022-08-21T21:26:46.224Z,2.67
2022-08-21T21:29:29.851Z,3.28
2022-08-21T21:31:57.895Z,3.90
2022-08-21T21:34:28.007Z,3.28
2022-08-21T21:37:16.568Z,3.78
2022-08-21T21:40:01.975Z,3.12
2022-08-21T21:42:58.307Z,3.35
2022-08-21T21:45:35.784Z,4.03
2022-08-21T21:48:32.905Z,2.37
2022-08-21T21:51:15.769Z,3.58
2022-08-21T21:53:56.546Z,5.05
2022-08-21T21:56:59.902Z,3.40
2022-08-21T21:59:58.790Z,3.85
2022-08-21T22:02:36.558Z,4.57
2022-08-21T22:05:12.720Z,2.92
2022-08-21T22:07:45.116Z,6.53
2022-08-21T22:10:32.491Z,5.03
2022-08-21T22:13:26.493Z,4.15
2022-08-21T22:15:55.638Z,4.00
2022-08-21T22:18:27.300Z,5.35
2022-08-21T22:21:03.442Z,3.22
2022-08-21T22:23:34.528Z,5.55
2022-08-21T22:26:08.740Z,6.18
2022-08-21T22:28:39.993Z,4.47
2022-08-21T22:31:27.821Z,3.37
2022-08-21T22:37:03.436Z,4.87
2022-08-21T22:39:44.039Z,4.25
2022-08-21T22:42:14.905Z,4.70
2022-08-21T22:44:53.926Z,6.12
2022-08-21T22:47:34.718Z,4.65
2022-08-21T22:50:06.492Z,5.32
2022-08-21T22:52:36.278Z,3.50
2022-08-21T22:55:32.319Z,5.12
2022-08-21T22:58:20.435Z,6.35
2022-08-21T23:01:06.202Z,7.85
2022-08-21T23:03:44.550Z,6.10
2022-08-21T23:06:46.521Z,5.97
2022-08-21T23:09:21.644Z,4.80
2022-08-21T23:14:37.209Z,4.72
2022-08-21T23:17:14.404Z,5.12
2022-08-21T23:20:10.037Z,5.03
2022-08-21T23:22:58.906Z,4.40
2022-08-21T23:25:53.029Z,5.18
2022-08-21T23:31:33.331Z,5.18
2022-08-21T23:34:10.570Z,3.95
2022-08-21T23:37:23.098Z,4.37
2022-08-21T23:40:13.862Z,4.60
2022-08-21T23:43:09.677Z,4.15
2022-08-21T23:45:58.492Z,6.10
2022-08-21T23:48:52.417Z,4.65
2022-08-21T23:51:46.040Z,5.95
2022-08-21T23:54:22.476Z,4.80
2022-08-21T23:57:02.645Z,5.47
